Terminal Aerodrome Forecast
Issued by NWS

Home | Current Version | Previous Version | Text Only | Print | Product List | Glossary On
Versions: 1 2 3 4 5 6 7 8 9 10 11 12 13 14 15 16 17 18 19 20 21 22 23 24 25 26 27 28 29 30 31 32
000
FTUS45 KREV 220520
TAFTVL
TAF
KTVL 220520Z 2206/2306 VRB03KT P6SM VCSH BKN035 OVC080
      TEMPO 2206/2209 5SM -SHSN BKN020 OVC030
     FM221700 06007KT P6SM VCSH BKN040 OVC120
     FM230100 VRB03KT P6SM SCT060=

USA.gov is the U.S. government's official web portal to all federal, state and local government web resources and services.